createdAt,value
2022-09-06T00:00:48.372Z,6.20
2022-09-06T00:03:35.577Z,6.00
2022-09-06T00:06:22.629Z,5.97
2022-09-06T00:09:09.588Z,6.33
2022-09-06T00:11:56.664Z,6.13
2022-09-06T00:14:43.752Z,6.20
2022-09-06T00:17:32.624Z,6.27
2022-09-06T00:20:19.810Z,6.27
2022-09-06T00:23:07.313Z,6.17
2022-09-06T00:26:01.317Z,6.77
2022-09-06T00:28:48.681Z,6.67
2022-09-06T00:31:35.780Z,6.40
2022-09-06T00:34:22.898Z,7.13
2022-09-06T00:37:09.901Z,7.53
2022-09-06T00:39:56.973Z,7.67
2022-09-06T00:42:44.052Z,7.17
2022-09-06T00:45:32.137Z,7.60
2022-09-06T00:48:19.531Z,7.23
2022-09-06T00:51:11.218Z,7.33
2022-09-06T00:53:59.273Z,6.60
2022-09-06T00:56:47.043Z,7.10
2022-09-06T00:59:37.275Z,7.70
2022-09-06T01:02:24.522Z,7.80
2022-09-06T01:05:12.610Z,7.50
2022-09-06T01:07:59.885Z,7.47
2022-09-06T01:11:06.965Z,7.33
2022-09-06T01:13:59.815Z,8.03
2022-09-06T01:17:21.518Z,8.87
2022-09-06T01:20:23.762Z,7.53
2022-09-06T01:23:32.150Z,7.57
2022-09-06T01:26:57.926Z,8.77
2022-09-06T01:30:13.018Z,8.40
2022-09-06T01:33:12.155Z,8.10
2022-09-06T01:36:07.135Z,8.07
2022-09-06T01:38:54.149Z,8.83
2022-09-06T01:41:41.182Z,8.60
2022-09-06T01:44:30.429Z,8.87
2022-09-06T01:47:23.606Z,9.17
2022-09-06T01:50:32.333Z,8.83
2022-09-06T01:53:54.036Z,9.13
2022-09-06T01:56:53.222Z,9.07
2022-09-06T02:00:25.442Z,8.60
2022-09-06T02:03:24.602Z,9.03
2022-09-06T02:06:20.933Z,9.30
2022-09-06T02:09:13.331Z,9.50
2022-09-06T02:12:04.292Z,9.97
2022-09-06T02:14:57.169Z,9.70
2022-09-06T02:17:53.521Z,9.73
2022-09-06T02:20:50.840Z,9.50
2022-09-06T02:23:40.505Z,9.33
2022-09-06T02:26:32.756Z,10.70
2022-09-06T02:29:20.057Z,9.70
2022-09-06T02:32:10.104Z,10.00
2022-09-06T02:34:57.726Z,10.30
2022-09-06T02:37:45.278Z,9.43
2022-09-06T02:40:32.373Z,9.57
2022-09-06T02:43:19.922Z,10.10
2022-09-06T02:46:07.190Z,9.40
2022-09-06T02:48:54.282Z,9.90
2022-09-06T02:51:41.475Z,10.07
2022-09-06T02:54:28.607Z,9.83
2022-09-06T02:57:15.636Z,9.73
2022-09-06T03:00:04.627Z,9.40
2022-09-06T03:02:51.686Z,9.37
2022-09-06T03:05:38.955Z,9.93
2022-09-06T03:08:26.532Z,10.20
2022-09-06T03:11:13.983Z,10.50
2022-09-06T03:14:00.996Z,9.67
2022-09-06T03:16:48.087Z,10.00
2022-09-06T03:19:35.208Z,10.60
2022-09-06T03:22:22.222Z,10.03
2022-09-06T03:25:10.408Z,9.93
2022-09-06T03:27:57.458Z,9.90
2022-09-06T03:30:46.257Z,10.30
2022-09-06T03:33:33.427Z,10.93
2022-09-06T03:36:20.569Z,9.77
2022-09-06T03:39:07.672Z,10.23
2022-09-06T03:41:54.636Z,10.07
2022-09-06T03:44:41.778Z,10.93
2022-09-06T03:47:28.722Z,10.00
2022-09-06T03:50:15.898Z,9.77
2022-09-06T03:53:02.845Z,10.43
2022-09-06T03:55:52.796Z,10.13
2022-09-06T03:58:39.799Z,9.63
2022-09-06T04:01:27.003Z,10.33
2022-09-06T04:04:14.165Z,9.80
2022-09-06T04:07:01.226Z,10.27
2022-09-06T04:09:48.572Z,9.07
2022-09-06T04:12:35.567Z,10.03
2022-09-06T04:15:22.526Z,10.03
2022-09-06T04:18:09.533Z,9.17
2022-09-06T04:20:57.191Z,10.10
2022-09-06T04:23:44.213Z,9.57
2022-09-06T04:26:31.411Z,9.10
2022-09-06T04:29:18.425Z,9.13
2022-09-06T04:32:05.652Z,10.10
2022-09-06T04:34:52.695Z,9.03
2022-09-06T04:37:40.065Z,10.07
2022-09-06T04:40:27.129Z,9.83
2022-09-06T04:43:14.116Z,9.40
2022-09-06T04:46:09.563Z,9.10
2022-09-06T04:48:58.102Z,9.80
2022-09-06T04:51:45.122Z,9.40
2022-09-06T04:54:32.265Z,9.97
2022-09-06T04:57:19.310Z,9.50
2022-09-06T05:00:07.153Z,8.80
2022-09-06T05:02:54.164Z,9.23
2022-09-06T05:05:41.492Z,9.13
2022-09-06T05:08:29.831Z,9.93
2022-09-06T05:11:18.150Z,9.07
2022-09-06T05:14:10.244Z,8.40
2022-09-06T05:20:29.037Z,8.73
2022-09-06T05:23:16.201Z,9.10
2022-09-06T05:26:07.961Z,8.70
2022-09-06T05:28:55.844Z,8.20
2022-09-06T05:32:17.802Z,8.53
2022-09-06T05:38:07.811Z,8.47
2022-09-06T05:41:07.971Z,8.03
2022-09-06T05:43:55.606Z,8.47
2022-09-06T05:49:57.788Z,8.03
2022-09-06T06:04:19.430Z,8.20
2022-09-06T06:11:21.534Z,8.20
2022-09-06T06:17:28.345Z,9.77
2022-09-06T06:24:04.108Z,9.50
2022-09-06T06:26:51.298Z,10.13
2022-09-06T06:29:38.303Z,9.93
2022-09-06T06:32:30.665Z,10.43
2022-09-06T06:35:18.585Z,10.33
2022-09-06T06:38:05.651Z,10.37
2022-09-06T06:40:57.219Z,10.43
2022-09-06T06:44:03.569Z,12.03
2022-09-06T06:46:51.718Z,10.43
2022-09-06T06:49:39.191Z,10.87
2022-09-06T07:30:45.100Z,10.13
2022-09-06T07:37:25.491Z,10.07
2022-09-06T07:54:31.865Z,9.47
2022-09-06T07:57:24.218Z,9.80
2022-09-06T08:04:53.490Z,8.87
2022-09-06T08:07:40.944Z,9.30
2022-09-06T08:10:31.398Z,9.20
2022-09-06T08:29:16.379Z,8.87
2022-09-06T08:32:03.875Z,8.90
2022-09-06T08:34:50.926Z,9.03
2022-09-06T08:37:37.976Z,8.80
2022-09-06T08:40:25.554Z,8.60
2022-09-06T08:43:18.602Z,8.57
2022-09-06T08:46:07.998Z,9.00
2022-09-06T08:48:55.615Z,9.00
2022-09-06T08:52:20.092Z,8.17
2022-09-06T08:55:23.806Z,8.43
2022-09-06T08:58:18.349Z,8.50
2022-09-06T09:01:17.662Z,8.27
2022-09-06T09:04:07.633Z,8.57
2022-09-06T09:07:00.818Z,8.77
2022-09-06T09:09:48.098Z,8.67
2022-09-06T09:12:42.287Z,8.23
2022-09-06T09:15:29.462Z,8.67
2022-09-06T09:18:25.791Z,7.53
2022-09-06T09:21:14.153Z,8.23
2022-09-06T09:24:13.483Z,8.80
2022-09-06T09:27:08.787Z,9.27
2022-09-06T09:33:29.218Z,8.07
2022-09-06T09:36:21.490Z,8.23
2022-09-06T09:39:12.662Z,8.27
2022-09-06T09:42:00.047Z,8.80
2022-09-06T09:44:47.154Z,8.00
2022-09-06T09:47:34.567Z,8.40
2022-09-06T09:50:31.939Z,8.10
2022-09-06T09:53:22.543Z,9.00
2022-09-06T09:56:09.655Z,7.90
2022-09-06T09:59:01.801Z,8.50
2022-09-06T10:01:49.902Z,8.83
2022-09-06T10:04:45.120Z,8.43
2022-09-06T10:07:49.929Z,9.43
2022-09-06T10:10:43.459Z,8.47
2022-09-06T10:13:31.226Z,7.17
2022-09-06T10:16:47.461Z,8.47
2022-09-06T10:19:43.248Z,7.93
2022-09-06T10:22:51.269Z,7.80
2022-09-06T10:25:43.041Z,7.53
2022-09-06T10:28:39.429Z,7.73
2022-09-06T10:32:11.063Z,7.83
2022-09-06T10:47:15.863Z,6.47
2022-09-06T10:50:06.407Z,6.77
2022-09-06T11:02:02.765Z,6.73
2022-09-06T11:09:31.943Z,6.47
2022-09-06T11:36:10.130Z,7.20
2022-09-06T11:41:53.102Z,6.60
2022-09-06T12:18:43.262Z,7.50
2022-09-06T12:21:36.456Z,7.95
2022-09-06T12:39:12.722Z,6.65
2022-09-06T12:42:06.946Z,6.50
2022-09-06T14:01:11.739Z,5.05
2022-09-06T14:03:59.638Z,5.18
2022-09-06T14:06:47.937Z,5.40
2022-09-06T14:09:34.938Z,5.32
2022-09-06T14:12:21.978Z,5.35
2022-09-06T14:15:10.022Z,5.15
2022-09-06T14:17:57.138Z,5.53
2022-09-06T14:20:52.347Z,5.25
2022-09-06T14:23:39.454Z,5.00
2022-09-06T14:26:26.544Z,4.90
2022-09-06T14:29:13.607Z,5.20
2022-09-06T14:32:00.853Z,5.30
2022-09-06T14:34:47.952Z,5.00
2022-09-06T14:37:34.969Z,5.93
2022-09-06T14:40:22.229Z,5.50
2022-09-06T14:43:09.229Z,5.20
2022-09-06T14:46:12.846Z,5.78
2022-09-06T14:49:07.465Z,4.90
2022-09-06T14:51:54.619Z,4.70
2022-09-06T14:54:41.736Z,4.88
2022-09-06T14:57:30.109Z,4.57
2022-09-06T15:00:17.883Z,5.43
2022-09-06T15:03:04.929Z,5.18
2022-09-06T15:05:51.975Z,5.65
2022-09-06T15:08:39.072Z,4.90
2022-09-06T15:11:35.079Z,5.43
2022-09-06T15:14:28.474Z,5.18
2022-09-06T15:17:15.556Z,5.22
2022-09-06T15:20:02.976Z,5.40
2022-09-06T15:22:56.322Z,4.95
2022-09-06T15:25:56.245Z,5.20
2022-09-06T15:28:44.548Z,5.20
2022-09-06T15:31:34.290Z,5.05
2022-09-06T15:34:24.350Z,5.22
2022-09-06T15:37:11.313Z,5.00
2022-09-06T15:39:58.384Z,5.00
2022-09-06T15:42:45.471Z,4.82
2022-09-06T15:45:46.763Z,5.20
2022-09-06T15:48:47.984Z,5.22
2022-09-06T15:51:37.222Z,4.80
2022-09-06T15:54:44.380Z,5.07
2022-09-06T15:57:31.470Z,4.40
2022-09-06T16:00:22.193Z,5.35
2022-09-06T16:03:09.217Z,5.13
2022-09-06T16:09:19.854Z,4.72
2022-09-06T16:12:07.115Z,4.50
2022-09-06T16:14:54.124Z,5.10
2022-09-06T16:17:41.187Z,4.95
2022-09-06T16:20:31.658Z,4.63
2022-09-06T16:23:20.618Z,4.65
2022-09-06T16:26:09.462Z,5.10
2022-09-06T16:28:56.460Z,5.00
2022-09-06T16:31:43.548Z,4.30
2022-09-06T16:34:30.650Z,5.57
2022-09-06T16:37:17.713Z,4.55
2022-09-06T16:40:05.203Z,4.75
2022-09-06T16:42:54.568Z,5.13
2022-09-06T16:45:41.730Z,4.82
2022-09-06T16:48:29.469Z,4.88
2022-09-06T16:51:18.597Z,5.03
2022-09-06T16:54:05.690Z,5.30
2022-09-06T16:56:52.878Z,4.60
2022-09-06T16:59:40.736Z,5.15
2022-09-06T17:02:28.383Z,4.78
2022-09-06T17:05:15.417Z,4.65
2022-09-06T17:08:03.314Z,5.18
2022-09-06T17:10:50.366Z,4.35
2022-09-06T17:13:38.041Z,5.43
2022-09-06T17:16:44.205Z,4.60
2022-09-06T17:19:40.274Z,5.07
2022-09-06T17:22:27.358Z,4.78
2022-09-06T17:25:14.785Z,5.13
2022-09-06T17:28:01.984Z,5.07
2022-09-06T17:30:49.856Z,4.60
2022-09-06T17:33:37.197Z,4.70
2022-09-06T17:36:30.564Z,4.97
2022-09-06T17:39:21.041Z,4.53
2022-09-06T17:42:08.718Z,4.65
2022-09-06T17:44:55.749Z,4.70
2022-09-06T17:47:42.748Z,4.75
2022-09-06T17:50:33.959Z,4.47
2022-09-06T17:53:20.982Z,4.50
2022-09-06T17:56:10.389Z,4.50
2022-09-06T17:59:00.098Z,4.63
2022-09-06T18:01:47.608Z,4.83
2022-09-06T18:04:34.852Z,4.30
2022-09-06T18:07:21.902Z,4.73
2022-09-06T18:10:10.021Z,4.40
2022-09-06T18:12:57.010Z,5.03
2022-09-06T18:15:44.146Z,4.43
2022-09-06T18:18:32.786Z,4.50
2022-09-06T18:21:20.221Z,4.97
2022-09-06T18:24:09.400Z,4.60
2022-09-06T18:26:56.444Z,4.60
2022-09-06T18:29:43.490Z,5.27
2022-09-06T18:32:30.986Z,5.20
2022-09-06T18:35:18.072Z,4.63
2022-09-06T18:38:05.158Z,4.90
2022-09-06T18:40:52.330Z,4.93
2022-09-06T18:43:40.395Z,5.00
2022-09-06T18:46:27.871Z,4.80
2022-09-06T18:49:16.130Z,5.17
2022-09-06T18:52:05.174Z,5.23
2022-09-06T18:54:52.361Z,5.20
2022-09-06T18:57:39.558Z,5.07
2022-09-06T19:00:26.992Z,5.20
2022-09-06T19:03:14.464Z,4.40
2022-09-06T19:06:06.757Z,4.90
2022-09-06T19:08:57.581Z,5.10
2022-09-06T19:11:47.072Z,4.87
2022-09-06T19:14:34.370Z,5.00
2022-09-06T19:17:21.387Z,5.37
2022-09-06T19:20:10.789Z,5.20
2022-09-06T19:22:57.789Z,5.33
2022-09-06T19:25:45.890Z,4.90
2022-09-06T19:28:33.745Z,5.60
2022-09-06T19:31:20.838Z,5.67
2022-09-06T19:34:08.013Z,5.83
2022-09-06T19:36:57.379Z,5.57
2022-09-06T19:39:44.460Z,5.30
2022-09-06T19:42:31.561Z,5.57
2022-09-06T19:45:18.595Z,5.90
2022-09-06T19:48:06.506Z,5.10
2022-09-06T19:50:53.490Z,4.80
2022-09-06T19:53:41.958Z,5.93
2022-09-06T19:56:34.486Z,5.43
2022-09-06T19:59:21.501Z,5.13
2022-09-06T20:02:09.463Z,6.10
2022-09-06T20:04:56.551Z,5.57
2022-09-06T20:07:43.749Z,5.67
2022-09-06T20:10:31.185Z,5.70
2022-09-06T20:13:18.274Z,6.20
2022-09-06T20:16:07.328Z,5.97
2022-09-06T20:18:55.214Z,6.20
2022-09-06T20:21:43.044Z,6.20
2022-09-06T20:24:30.058Z,5.93
2022-09-06T20:27:17.117Z,5.83
2022-09-06T20:30:04.517Z,5.67
2022-09-06T20:32:51.517Z,5.60
2022-09-06T20:35:38.550Z,6.30
2022-09-06T20:38:26.015Z,6.07
2022-09-06T20:41:16.410Z,5.63
2022-09-06T20:44:03.944Z,6.03
2022-09-06T20:46:51.590Z,6.10
2022-09-06T20:49:38.653Z,6.60
2022-09-06T20:52:25.963Z,6.10
2022-09-06T20:55:13.025Z,6.03
2022-09-06T20:58:00.018Z,6.40
2022-09-06T21:00:47.033Z,6.17
2022-09-06T21:03:37.308Z,6.73
2022-09-06T21:06:29.100Z,6.10
2022-09-06T21:09:16.506Z,6.17
2022-09-06T21:12:04.682Z,5.83
2022-09-06T21:14:51.787Z,5.90
2022-09-06T21:17:39.039Z,5.90
2022-09-06T21:20:26.326Z,6.20
2022-09-06T21:23:13.693Z,6.47
2022-09-06T21:26:03.161Z,6.47
2022-09-06T21:28:50.639Z,6.20
2022-09-06T21:31:38.288Z,6.23
2022-09-06T21:34:25.895Z,6.70
2022-09-06T21:37:13.071Z,6.00
2022-09-06T21:40:00.285Z,6.57
2022-09-06T21:42:48.009Z,6.13
2022-09-06T21:45:38.261Z,6.30
2022-09-06T21:48:25.507Z,6.00
2022-09-06T21:51:18.697Z,6.60
2022-09-06T21:54:06.862Z,6.20
2022-09-06T21:56:54.783Z,6.20
2022-09-06T21:59:41.857Z,6.93
2022-09-06T22:02:29.035Z,6.53
2022-09-06T22:05:16.134Z,6.83
2022-09-06T22:08:03.390Z,6.57
2022-09-06T22:10:50.714Z,6.60
2022-09-06T22:13:38.210Z,7.20
2022-09-06T22:16:25.344Z,6.50
2022-09-06T22:19:12.809Z,6.73
2022-09-06T22:21:59.785Z,6.63
2022-09-06T22:24:46.858Z,7.17
2022-09-06T22:27:33.909Z,6.87
2022-09-06T22:30:25.506Z,7.10
2022-09-06T22:33:12.728Z,6.73
2022-09-06T22:36:02.959Z,7.03
2022-09-06T22:38:57.502Z,6.50
2022-09-06T22:41:44.965Z,6.83
2022-09-06T22:44:31.978Z,7.30
2022-09-06T22:47:19.030Z,7.60
2022-09-06T22:50:06.737Z,7.23
2022-09-06T22:52:54.141Z,7.03
2022-09-06T22:55:47.284Z,7.27
2022-09-06T22:58:35.459Z,7.57
2022-09-06T23:01:22.587Z,6.73
2022-09-06T23:04:10.197Z,7.00
2022-09-06T23:06:59.834Z,7.33
2022-09-06T23:09:46.853Z,7.10
2022-09-06T23:12:33.823Z,7.27
2022-09-06T23:15:20.857Z,6.90
2022-09-06T23:18:08.642Z,7.07
2022-09-06T23:20:55.713Z,7.17
2022-09-06T23:23:43.488Z,7.30
2022-09-06T23:26:32.176Z,6.93
2022-09-06T23:29:19.302Z,7.90
2022-09-06T23:32:07.132Z,7.97
2022-09-06T23:34:55.834Z,7.00
2022-09-06T23:37:42.869Z,7.33
2022-09-06T23:40:29.921Z,8.00
2022-09-06T23:43:16.934Z,8.27
2022-09-06T23:46:04.108Z,8.00
2022-09-06T23:48:51.118Z,8.60
2022-09-06T23:51:38.203Z,8.40
2022-09-06T23:54:25.170Z,7.70
2022-09-06T23:57:12.338Z,8.50
2022-09-06T23:59:59.316Z,7.57
